createdAt,value
2023-01-30T00:01:24.756Z,14.05
2023-01-30T00:03:52.071Z,5.93
2023-01-30T00:06:19.586Z,7.40
2023-01-30T00:08:47.002Z,7.45
2023-01-30T00:11:16.212Z,5.60
2023-01-30T00:13:44.002Z,5.88
2023-01-30T00:16:11.590Z,5.80
2023-01-30T00:18:40.271Z,13.98
2023-01-30T00:21:09.091Z,8.38
2023-01-30T00:23:37.412Z,6.00
2023-01-30T00:26:08.278Z,5.78
2023-01-30T00:28:35.559Z,5.57
2023-01-30T00:31:02.692Z,4.88
2023-01-30T00:33:29.925Z,4.22
2023-01-30T00:35:57.644Z,6.15
2023-01-30T00:38:25.056Z,6.50
2023-01-30T00:40:52.456Z,2.42
2023-01-30T00:43:39.674Z,3.90
2023-01-30T00:46:32.147Z,4.10
2023-01-30T00:48:59.196Z,3.83
2023-01-30T00:51:26.285Z,8.65
2023-01-30T00:53:53.363Z,8.27
2023-01-30T00:56:20.404Z,9.95
2023-01-30T00:58:47.544Z,6.93
2023-01-30T01:01:14.601Z,8.85
2023-01-30T01:03:41.659Z,9.53
2023-01-30T01:06:08.710Z,10.50
2023-01-30T01:08:35.776Z,5.27
2023-01-30T01:11:02.967Z,4.30
2023-01-30T01:13:30.116Z,4.05
2023-01-30T01:15:57.298Z,3.40
2023-01-30T01:18:24.436Z,4.15
2023-01-30T01:20:52.072Z,4.43
2023-01-30T01:23:19.181Z,4.13
2023-01-30T01:25:46.260Z,17.10
2023-01-30T01:28:13.337Z,4.90
2023-01-30T01:30:40.392Z,4.72
2023-01-30T01:33:07.463Z,4.75
2023-01-30T01:35:34.513Z,5.27
2023-01-30T01:38:01.563Z,4.47
2023-01-30T01:40:47.187Z,2.57
2023-01-30T01:43:24.959Z,2.30
2023-01-30T01:45:57.634Z,4.13
2023-01-30T01:48:30.258Z,1.90
2023-01-30T01:51:09.114Z,2.83
2023-01-30T01:53:45.895Z,4.32
2023-01-30T01:56:16.377Z,3.50
2023-01-30T01:58:50.162Z,5.20
2023-01-30T02:01:17.267Z,3.88
2023-01-30T02:03:49.601Z,5.90
2023-01-30T02:06:18.101Z,9.75
2023-01-30T02:08:50.534Z,6.85
2023-01-30T02:11:33.716Z,5.32
2023-01-30T02:14:02.181Z,3.67
2023-01-30T02:16:29.245Z,3.77
2023-01-30T02:18:56.374Z,9.77
2023-01-30T02:22:02.873Z,6.43
2023-01-30T02:24:51.170Z,5.68
2023-01-30T02:27:27.922Z,3.90
2023-01-30T02:30:22.547Z,5.50
2023-01-30T02:33:39.735Z,2.40
2023-01-30T02:36:41.556Z,2.63
2023-01-30T02:39:21.727Z,2.45
2023-01-30T02:41:54.555Z,2.50
2023-01-30T02:44:30.387Z,3.28
2023-01-30T02:47:10.124Z,2.72
2023-01-30T02:49:51.986Z,3.65
2023-01-30T02:52:19.935Z,2.73
2023-01-30T02:54:47.067Z,3.53
2023-01-30T02:57:32.199Z,4.03
2023-01-30T03:00:02.571Z,3.40
2023-01-30T03:02:37.015Z,4.00
2023-01-30T03:05:10.227Z,4.63
2023-01-30T03:08:16.124Z,6.63
2023-01-30T03:10:58.365Z,6.57
2023-01-30T03:13:55.963Z,6.20
2023-01-30T03:16:31.581Z,6.70
2023-01-30T03:19:03.524Z,10.23
2023-01-30T03:21:30.569Z,7.45
2023-01-30T03:23:57.821Z,11.10
2023-01-30T03:26:32.867Z,9.40
2023-01-30T03:29:01.303Z,13.98
2023-01-30T03:31:28.473Z,8.32
2023-01-30T03:33:55.583Z,8.63
2023-01-30T03:36:22.715Z,7.78
2023-01-30T03:38:51.808Z,7.53
2023-01-30T03:41:19.200Z,5.95
2023-01-30T03:43:46.262Z,9.73
2023-01-30T03:46:13.345Z,6.28
2023-01-30T03:48:40.392Z,8.77
2023-01-30T03:51:07.533Z,5.90
2023-01-30T03:53:34.632Z,7.57
2023-01-30T03:56:01.701Z,8.55
2023-01-30T03:58:28.980Z,7.67
2023-01-30T04:00:57.890Z,6.33
2023-01-30T04:03:25.035Z,4.07
2023-01-30T04:05:52.122Z,9.02
2023-01-30T04:08:19.176Z,7.85
2023-01-30T04:10:46.208Z,4.47
2023-01-30T04:13:13.273Z,4.70
2023-01-30T04:15:40.352Z,3.95
2023-01-30T04:18:07.431Z,3.22
2023-01-30T04:20:34.509Z,5.15
2023-01-30T04:23:01.571Z,3.60
2023-01-30T04:25:28.759Z,2.90
2023-01-30T04:27:55.856Z,5.28
2023-01-30T04:30:23.218Z,4.57
2023-01-30T04:32:50.306Z,4.45
2023-01-30T04:35:17.648Z,3.35
2023-01-30T04:37:44.925Z,2.45
2023-01-30T04:40:12.355Z,3.72
2023-01-30T04:42:40.044Z,3.40
2023-01-30T04:45:07.658Z,3.20
2023-01-30T04:47:34.797Z,3.13
2023-01-30T04:50:01.925Z,2.00
2023-01-30T04:52:28.981Z,2.05
2023-01-30T04:54:56.078Z,3.05
2023-01-30T04:57:23.115Z,2.17
2023-01-30T04:59:50.171Z,2.05
2023-01-30T05:02:17.351Z,1.75
2023-01-30T05:04:44.476Z,1.77
2023-01-30T05:07:11.825Z,1.83
2023-01-30T05:09:38.899Z,2.13
2023-01-30T05:12:06.157Z,3.05
2023-01-30T05:14:34.882Z,4.55
2023-01-30T05:17:02.069Z,5.85
2023-01-30T05:19:29.128Z,3.38
2023-01-30T05:21:56.257Z,4.30
2023-01-30T05:24:23.357Z,4.77
2023-01-30T05:26:50.404Z,10.77
2023-01-30T05:29:17.462Z,7.90
2023-01-30T05:31:44.566Z,12.45
2023-01-30T05:34:12.616Z,6.50
2023-01-30T05:36:39.718Z,7.68
2023-01-30T05:39:06.855Z,11.02
2023-01-30T05:41:33.898Z,6.95
2023-01-30T05:44:00.986Z,6.45
2023-01-30T05:46:28.117Z,7.55
2023-01-30T05:48:55.187Z,6.73
2023-01-30T05:51:25.498Z,3.37
2023-01-30T05:53:52.817Z,3.47
2023-01-30T05:56:20.561Z,6.80
2023-01-30T05:58:55.071Z,3.17
2023-01-30T06:01:22.812Z,4.80
2023-01-30T06:03:50.353Z,5.30
2023-01-30T06:06:18.087Z,6.07
2023-01-30T06:08:45.287Z,4.80
2023-01-30T06:11:17.257Z,17.35
2023-01-30T06:13:45.056Z,4.97
2023-01-30T06:16:14.303Z,5.63
2023-01-30T06:18:41.819Z,7.00
2023-01-30T06:21:09.380Z,5.10
2023-01-30T06:23:36.596Z,7.30
2023-01-30T06:26:07.324Z,11.88
2023-01-30T06:28:35.677Z,9.52
2023-01-30T06:31:02.961Z,11.40
2023-01-30T06:33:30.148Z,12.10
2023-01-30T06:35:57.211Z,14.23
2023-01-30T06:38:26.099Z,14.02
2023-01-30T06:40:53.392Z,9.00
2023-01-30T06:43:20.453Z,14.98
2023-01-30T06:45:47.585Z,12.83
2023-01-30T06:48:14.817Z,13.15
2023-01-30T06:50:46.847Z,9.57
2023-01-30T06:53:14.079Z,6.45
2023-01-30T06:55:41.204Z,7.40
2023-01-30T06:58:13.601Z,12.52
2023-01-30T07:00:42.485Z,11.70
2023-01-30T07:03:14.728Z,10.63
2023-01-30T07:05:43.292Z,9.10
2023-01-30T07:08:11.182Z,5.28
2023-01-30T07:10:38.517Z,6.60
2023-01-30T07:13:05.660Z,5.78
2023-01-30T07:15:33.070Z,4.70
2023-01-30T07:18:00.596Z,4.53
2023-01-30T07:20:29.964Z,4.43
2023-01-30T07:22:57.740Z,3.67
2023-01-30T07:25:26.625Z,2.53
2023-01-30T07:28:01.797Z,4.13
2023-01-30T07:30:30.969Z,19.90
2023-01-30T07:33:00.135Z,16.47
2023-01-30T07:35:29.903Z,16.15
2023-01-30T07:37:57.640Z,44.40
2023-01-30T07:40:24.939Z,35.67
2023-01-30T07:43:00.401Z,28.23
2023-01-30T07:45:30.989Z,20.85
2023-01-30T07:47:58.047Z,19.92
2023-01-30T07:50:25.251Z,13.55
2023-01-30T07:52:52.348Z,15.18
2023-01-30T07:55:20.166Z,10.38
2023-01-30T07:57:47.407Z,15.20
2023-01-30T08:00:15.297Z,14.98
2023-01-30T08:02:42.429Z,12.18
2023-01-30T08:05:09.771Z,8.73
2023-01-30T08:07:36.929Z,15.07
2023-01-30T08:10:04.577Z,10.05
2023-01-30T08:12:31.760Z,16.03
2023-01-30T08:14:58.819Z,9.15
2023-01-30T08:17:25.884Z,10.43
2023-01-30T08:19:52.992Z,7.70
2023-01-30T08:22:20.045Z,10.40
2023-01-30T08:24:47.149Z,5.57
2023-01-30T08:27:14.240Z,6.53
2023-01-30T08:29:41.343Z,6.87
2023-01-30T08:32:08.473Z,6.97
2023-01-30T08:34:35.971Z,5.20
2023-01-30T08:37:03.394Z,6.75
2023-01-30T08:39:30.569Z,11.63
2023-01-30T08:41:57.640Z,7.47
2023-01-30T08:44:24.741Z,11.25
2023-01-30T08:46:51.804Z,11.13
2023-01-30T08:49:18.949Z,13.77
2023-01-30T08:51:46.046Z,11.57
2023-01-30T08:54:13.131Z,11.33
2023-01-30T08:56:40.366Z,10.02
2023-01-30T08:59:07.820Z,13.65
2023-01-30T09:01:35.592Z,8.40
2023-01-30T09:04:02.748Z,9.93
2023-01-30T09:06:29.820Z,9.45
2023-01-30T09:08:56.864Z,10.83
2023-01-30T09:11:23.932Z,11.63
2023-01-30T09:13:50.986Z,8.77
2023-01-30T09:16:18.127Z,5.65
2023-01-30T09:18:45.353Z,6.70
2023-01-30T09:21:13.548Z,4.18
2023-01-30T09:23:40.971Z,5.25
2023-01-30T09:26:08.353Z,7.18
2023-01-30T09:28:35.730Z,24.90
2023-01-30T09:31:03.409Z,34.65
2023-01-30T09:33:30.661Z,10.27
2023-01-30T09:35:57.744Z,12.47
2023-01-30T09:38:24.895Z,11.25
2023-01-30T09:40:55.661Z,23.05
2023-01-30T09:43:44.949Z,14.60
2023-01-30T09:46:29.165Z,28.10
2023-01-30T09:49:15.816Z,11.30
2023-01-30T09:51:59.362Z,18.33
2023-01-30T09:54:31.762Z,30.17
2023-01-30T09:57:01.929Z,22.67
2023-01-30T09:59:36.141Z,47.70
2023-01-30T10:02:09.386Z,23.47
2023-01-30T10:05:00.107Z,78.45
2023-01-30T10:07:40.036Z,66.75
2023-01-30T10:10:39.295Z,37.43
2023-01-30T10:13:15.734Z,27.75
2023-01-30T10:16:18.510Z,17.40
2023-01-30T10:19:23.301Z,21.80
2023-01-30T10:22:25.059Z,33.37
2023-01-30T10:25:03.212Z,12.93
2023-01-30T10:27:32.735Z,22.90
2023-01-30T10:30:04.942Z,12.77
2023-01-30T10:32:46.132Z,11.52
2023-01-30T10:35:25.512Z,10.93
2023-01-30T10:38:12.611Z,23.77
2023-01-30T10:40:44.286Z,13.23
2023-01-30T10:43:23.758Z,12.13
2023-01-30T10:46:04.286Z,19.73
2023-01-30T10:48:50.313Z,6.50
2023-01-30T10:51:30.310Z,8.43
2023-01-30T10:54:29.602Z,13.77
2023-01-30T10:57:16.349Z,7.63
2023-01-30T11:00:09.832Z,9.30
2023-01-30T11:03:13.099Z,13.70
2023-01-30T11:05:51.481Z,21.50
2023-01-30T11:08:21.281Z,13.60
2023-01-30T11:10:48.936Z,14.07
2023-01-30T11:13:21.927Z,8.25
2023-01-30T11:15:52.480Z,5.28
2023-01-30T11:21:18.282Z,31.30
2023-01-30T11:23:45.362Z,15.43
2023-01-30T11:26:29.508Z,15.15
2023-01-30T11:28:59.177Z,13.80
2023-01-30T11:31:40.880Z,19.35
2023-01-30T11:34:16.678Z,12.30
2023-01-30T11:36:47.039Z,12.00
2023-01-30T11:39:14.375Z,18.33
2023-01-30T11:41:42.996Z,16.50
2023-01-30T11:44:11.185Z,13.80
2023-01-30T11:46:40.762Z,7.45
2023-01-30T11:49:58.038Z,16.10
2023-01-30T11:52:05.063Z,7.93
2023-01-30T11:54:42.880Z,6.50
2023-01-30T11:57:14.288Z,11.18
2023-01-30T11:59:47.452Z,5.70
2023-01-30T12:02:20.691Z,8.48
2023-01-30T12:04:53.688Z,9.30
2023-01-30T12:07:32.170Z,8.47
2023-01-30T12:09:59.621Z,7.57
2023-01-30T12:12:31.658Z,3.63
2023-01-30T12:15:14.757Z,2.10
2023-01-30T12:17:55.935Z,3.17
2023-01-30T12:20:49.265Z,3.63
2023-01-30T12:23:32.627Z,4.25
2023-01-30T12:26:08.711Z,4.20
2023-01-30T12:29:02.106Z,4.30
2023-01-30T12:31:48.380Z,4.53
2023-01-30T12:34:15.928Z,4.85
2023-01-30T12:36:45.836Z,17.85
2023-01-30T12:39:27.668Z,13.98
2023-01-30T12:42:00.949Z,14.15
2023-01-30T12:44:39.290Z,12.75
2023-01-30T12:47:12.272Z,14.88
2023-01-30T12:50:08.568Z,13.63
2023-01-30T12:52:54.906Z,7.25
2023-01-30T12:55:53.265Z,5.43
2023-01-30T12:58:43.627Z,5.03
2023-01-30T13:01:44.304Z,5.15
2023-01-30T13:04:21.816Z,2.15
2023-01-30T13:06:59.248Z,2.23
2023-01-30T13:09:52.882Z,3.47
2023-01-30T13:12:31.818Z,2.67
2023-01-30T13:15:24.984Z,1.38
2023-01-30T13:18:15.101Z,1.50
2023-01-30T13:21:07.870Z,1.77
2023-01-30T13:23:49.843Z,2.20
2023-01-30T13:26:22.642Z,8.00
2023-01-30T13:28:55.768Z,2.58
2023-01-30T13:31:31.395Z,19.88
2023-01-30T13:34:10.190Z,49.37
2023-01-30T13:36:50.087Z,31.83
2023-01-30T13:39:26.855Z,34.53
2023-01-30T13:41:57.571Z,22.42
2023-01-30T13:44:31.862Z,16.65
2023-01-30T13:47:27.721Z,13.40
2023-01-30T13:50:17.020Z,19.58
2023-01-30T13:52:59.223Z,22.42
2023-01-30T13:55:29.332Z,22.80
2023-01-30T13:58:17.710Z,47.27
2023-01-30T14:00:57.950Z,46.17
2023-01-30T14:03:33.223Z,57.35
2023-01-30T14:06:11.809Z,41.30
2023-01-30T14:08:40.722Z,19.48
2023-01-30T14:11:28.925Z,18.50
2023-01-30T14:14:18.888Z,26.42
2023-01-30T14:16:48.759Z,16.02
2023-01-30T14:19:40.532Z,15.73
2023-01-30T14:22:35.195Z,13.85
2023-01-30T14:25:30.315Z,19.13
2023-01-30T14:28:00.565Z,22.08
2023-01-30T14:31:12.301Z,18.20
2023-01-30T14:33:50.846Z,13.02
2023-01-30T14:36:21.010Z,14.25
2023-01-30T14:38:57.459Z,13.17
2023-01-30T14:41:26.111Z,15.38
2023-01-30T14:43:54.361Z,10.63
2023-01-30T14:46:21.629Z,11.25
2023-01-30T14:48:54.558Z,7.68
2023-01-30T14:51:39.870Z,6.90
2023-01-30T14:54:25.420Z,4.10
2023-01-30T14:57:17.147Z,3.88
2023-01-30T15:00:17.061Z,5.03
2023-01-30T15:02:53.642Z,5.63
2023-01-30T15:05:38.993Z,4.93
2023-01-30T15:08:19.139Z,5.57
2023-01-30T15:11:13.738Z,7.88
2023-01-30T15:13:55.944Z,5.18
2023-01-30T15:16:53.114Z,2.65
2023-01-30T15:19:35.247Z,6.47
2023-01-30T15:22:26.231Z,4.50
2023-01-30T15:25:27.125Z,6.18
2023-01-30T15:28:25.404Z,6.15
2023-01-30T15:31:14.248Z,3.42
2023-01-30T15:33:49.774Z,1.90
2023-01-30T15:36:26.307Z,5.93
2023-01-30T15:39:06.153Z,54.75
2023-01-30T15:41:41.135Z,31.60
2023-01-30T15:44:39.505Z,28.10
2023-01-30T15:47:20.462Z,21.58
2023-01-30T15:50:09.114Z,30.90
2023-01-30T15:52:40.092Z,21.70
2023-01-30T15:55:15.017Z,22.93
2023-01-30T15:57:45.499Z,22.47
2023-01-30T16:00:46.408Z,19.83
2023-01-30T16:03:18.645Z,14.55
2023-01-30T16:05:51.087Z,16.85
2023-01-30T16:08:29.808Z,25.17
2023-01-30T16:10:57.404Z,23.10
2023-01-30T16:13:24.737Z,20.83
2023-01-30T16:16:10.384Z,16.92
2023-01-30T16:18:59.858Z,16.55
2023-01-30T16:21:31.253Z,16.77
2023-01-30T16:24:07.535Z,39.75
2023-01-30T16:26:36.149Z,12.82
2023-01-30T16:29:07.933Z,17.10
2023-01-30T16:31:39.119Z,13.38
2023-01-30T16:34:06.301Z,11.20
2023-01-30T16:36:40.289Z,9.35
2023-01-30T16:39:30.519Z,9.05
2023-01-30T16:41:59.337Z,14.82
2023-01-30T16:44:31.075Z,11.30
2023-01-30T16:46:59.707Z,8.02
2023-01-30T16:49:37.106Z,10.03
2023-01-30T16:52:23.423Z,6.68
2023-01-30T16:54:56.764Z,7.00
2023-01-30T16:57:36.583Z,5.80
2023-01-30T17:00:19.724Z,4.07
2023-01-30T17:02:58.648Z,5.35
2023-01-30T17:05:31.336Z,3.45
2023-01-30T17:08:00.356Z,5.00
2023-01-30T17:10:39.976Z,6.93
2023-01-30T17:13:29.833Z,5.03
2023-01-30T17:16:21.777Z,2.90
2023-01-30T17:18:50.090Z,2.22
2023-01-30T17:21:18.102Z,5.95
2023-01-30T17:23:59.219Z,2.58
2023-01-30T17:26:26.473Z,2.20
2023-01-30T17:28:53.528Z,1.85
2023-01-30T17:31:22.391Z,1.50
2023-01-30T17:33:49.532Z,2.00
2023-01-30T17:36:25.689Z,2.33
2023-01-30T17:38:52.831Z,3.30
2023-01-30T17:41:30.014Z,2.08
2023-01-30T17:43:57.844Z,3.85
2023-01-30T17:46:39.977Z,4.80
2023-01-30T17:49:17.160Z,5.93
2023-01-30T17:51:44.829Z,9.63
2023-01-30T17:54:13.032Z,9.25
2023-01-30T17:56:42.159Z,6.57
2023-01-30T17:59:14.806Z,5.87
2023-01-30T18:01:50.568Z,11.52
2023-01-30T18:04:19.100Z,10.63
2023-01-30T18:06:49.329Z,10.87
2023-01-30T18:09:19.656Z,14.63
2023-01-30T18:11:47.807Z,10.43
2023-01-30T18:14:16.356Z,8.32
2023-01-30T18:16:43.891Z,9.40
2023-01-30T18:19:14.534Z,15.13
2023-01-30T18:21:45.005Z,6.78
2023-01-30T18:24:13.359Z,9.00
2023-01-30T18:26:41.143Z,4.95
2023-01-30T18:29:09.652Z,5.97
2023-01-30T18:31:38.285Z,6.63
2023-01-30T18:34:05.837Z,9.88
2023-01-30T18:36:37.045Z,6.70
2023-01-30T18:39:05.111Z,8.00
2023-01-30T18:41:32.831Z,7.40
2023-01-30T18:44:02.649Z,6.82
2023-01-30T18:46:30.117Z,5.70
2023-01-30T18:48:57.747Z,7.55
2023-01-30T18:51:30.091Z,5.20
2023-01-30T18:53:57.287Z,3.50
2023-01-30T18:56:27.655Z,3.88
2023-01-30T18:58:56.299Z,7.25
2023-01-30T19:01:25.892Z,5.63
2023-01-30T19:03:57.353Z,10.93
2023-01-30T19:06:25.340Z,3.78
2023-01-30T19:08:52.457Z,5.72
2023-01-30T19:11:40.411Z,2.80
2023-01-30T19:14:08.833Z,2.53
2023-01-30T19:16:38.185Z,4.90
2023-01-30T19:19:06.983Z,6.05
2023-01-30T19:21:34.746Z,10.73
2023-01-30T19:24:03.760Z,8.00
2023-01-30T19:26:30.870Z,3.20
2023-01-30T19:28:58.030Z,3.33
2023-01-30T19:31:25.271Z,3.78
2023-01-30T19:33:58.353Z,6.20
2023-01-30T19:36:27.631Z,6.30
2023-01-30T19:38:55.379Z,4.37
2023-01-30T19:41:25.731Z,5.07
2023-01-30T19:43:54.443Z,5.82
2023-01-30T19:46:22.022Z,8.77
2023-01-30T19:48:49.999Z,7.18
2023-01-30T19:51:22.778Z,7.05
2023-01-30T19:53:52.813Z,9.45
2023-01-30T19:56:22.169Z,7.22
2023-01-30T19:58:52.869Z,5.90
2023-01-30T20:01:22.120Z,8.80
2023-01-30T20:03:49.423Z,7.28
2023-01-30T20:06:23.629Z,38.00
2023-01-30T20:08:54.975Z,14.95
2023-01-30T20:11:22.131Z,12.07
2023-01-30T20:13:50.140Z,33.03
2023-01-30T20:16:22.885Z,14.50
2023-01-30T20:18:55.581Z,11.88
2023-01-30T20:21:23.329Z,12.85
2023-01-30T20:23:51.382Z,11.77
2023-01-30T20:26:30.507Z,7.33
2023-01-30T20:28:58.340Z,10.70
2023-01-30T20:31:27.424Z,5.80
2023-01-30T20:33:57.514Z,4.10
2023-01-30T20:36:26.730Z,6.25
2023-01-30T20:38:55.890Z,5.03
2023-01-30T20:41:25.470Z,5.28
2023-01-30T20:43:56.487Z,6.30
2023-01-30T20:46:24.649Z,7.78
2023-01-30T20:48:54.517Z,5.13
2023-01-30T20:51:24.371Z,6.82
2023-01-30T20:53:53.952Z,9.00
2023-01-30T20:56:22.815Z,7.50
2023-01-30T20:58:50.539Z,6.88
2023-01-30T21:01:21.295Z,9.32
2023-01-30T21:03:52.859Z,7.53
2023-01-30T21:06:42.554Z,8.57
2023-01-30T21:09:20.913Z,10.82
2023-01-30T21:11:49.593Z,8.82
2023-01-30T21:14:17.052Z,8.55
2023-01-30T21:16:45.062Z,8.77
2023-01-30T21:19:15.953Z,6.47
2023-01-30T21:21:50.389Z,7.72
2023-01-30T21:24:20.972Z,6.10
2023-01-30T21:26:48.400Z,10.68
2023-01-30T21:29:17.983Z,8.20
2023-01-30T21:31:45.439Z,14.18
2023-01-30T21:34:13.244Z,6.70
2023-01-30T21:36:41.024Z,6.07
2023-01-30T21:39:31.570Z,6.35
2023-01-30T21:42:17.173Z,3.95
2023-01-30T21:44:44.235Z,7.30
2023-01-30T21:47:11.490Z,7.53
2023-01-30T21:49:40.420Z,5.80
2023-01-30T21:52:07.472Z,4.07
2023-01-30T21:54:34.524Z,3.00
2023-01-30T21:57:02.361Z,4.85
2023-01-30T21:59:31.039Z,3.40
2023-01-30T22:01:58.087Z,5.50
2023-01-30T22:04:25.138Z,5.50
2023-01-30T22:06:52.188Z,6.13
2023-01-30T22:09:19.271Z,5.23
2023-01-30T22:11:46.414Z,7.18
2023-01-30T22:14:14.056Z,7.70
2023-01-30T22:16:41.670Z,10.60
2023-01-30T22:19:09.546Z,5.72
2023-01-30T22:21:39.914Z,7.50
2023-01-30T22:24:09.467Z,9.80
2023-01-30T22:26:36.878Z,12.55
2023-01-30T22:29:05.836Z,12.32
2023-01-30T22:31:35.505Z,9.48
2023-01-30T22:34:03.822Z,9.27
2023-01-30T22:36:33.170Z,8.10
2023-01-30T22:39:00.395Z,8.65
2023-01-30T22:41:30.274Z,7.70
2023-01-30T22:43:59.189Z,13.77
2023-01-30T22:46:31.794Z,8.50
2023-01-30T22:49:00.149Z,10.77
2023-01-30T22:51:32.346Z,9.88
2023-01-30T22:54:02.307Z,10.05
2023-01-30T22:56:35.888Z,12.30
2023-01-30T22:59:03.562Z,30.65
2023-01-30T23:01:32.896Z,20.85
2023-01-30T23:04:02.488Z,14.55
2023-01-30T23:06:31.355Z,13.90
2023-01-30T23:08:59.978Z,17.05
2023-01-30T23:11:32.543Z,27.43
2023-01-30T23:14:06.866Z,17.33
2023-01-30T23:16:36.024Z,19.13
2023-01-30T23:19:04.611Z,19.77
2023-01-30T23:21:36.903Z,14.50
2023-01-30T23:24:13.304Z,15.37
2023-01-30T23:26:43.106Z,15.48
2023-01-30T23:29:13.207Z,12.83
2023-01-30T23:31:41.491Z,19.77
2023-01-30T23:34:12.966Z,11.50
2023-01-30T23:36:40.255Z,9.37
2023-01-30T23:39:07.474Z,10.38
2023-01-30T23:41:36.536Z,17.00
2023-01-30T23:44:04.468Z,8.23
2023-01-30T23:46:36.810Z,8.80
2023-01-30T23:49:06.641Z,8.27
2023-01-30T23:51:36.419Z,6.28
2023-01-30T23:54:04.621Z,8.85
2023-01-30T23:56:35.460Z,7.10
2023-01-30T23:59:03.713Z,6.72
